Time;durP1;ratioP1;P1;durP2;ratioP2;P2;SDS_P1;SDS_P2;PMS_P1;PMS_P2;Temp;Humidity;BMP_temperature;BMP_pressure;BME280_temperature;BME280_humidity;BME280_pressure;Samples;Min_cycle;Max_cycle;Signal;HPM_P1;HPM_P2
2024/04/11 00:00:42;;;;;;;5.03;2.05;;;12.90;1.00;;;;;;5483475;25;41198;-79
2024/04/11 00:03:12;;;;;;;6.97;1.38;;;12.90;29.20;;;;;;5479532;25;37636;-80
2024/04/11 00:05:40;;;;;;;8.02;1.48;;;12.90;99.90;;;;;;5478678;25;37183;-79
2024/04/11 00:08:06;;;;;;;5.47;1.60;;;12.90;6.40;;;;;;5499690;25;37844;-79
2024/04/11 00:10:34;;;;;;;8.30;1.70;;;12.90;1.00;;;;;;5485006;25;39140;-80
2024/04/11 00:13:04;;;;;;;10.68;2.13;;;12.90;1.00;;;;;;5482385;25;38228;-79
2024/04/11 00:15:31;;;;;;;6.13;1.50;;;12.90;19.60;;;;;;5485808;25;47959;-80
2024/04/11 00:18:00;;;;;;;8.65;1.58;;;12.90;19.20;;;;;;5467140;26;38073;-80
2024/04/11 00:20:26;;;;;;;4.85;1.70;;;12.90;1.00;;;;;;5473247;25;39100;-80
2024/04/11 00:22:56;;;;;;;7.15;1.70;;;12.90;87.30;;;;;;5479685;25;38872;-79
2024/04/11 00:25:25;;;;;;;7.47;1.70;;;12.80;92.10;;;;;;5468932;25;38471;-80
2024/04/11 00:27:51;;;;;;;7.13;1.85;;;12.80;99.90;;;;;;5469870;25;35899;-80
2024/04/11 00:30:18;;;;;;;7.50;1.60;;;12.80;99.90;;;;;;5465762;25;38219;-79
2024/04/11 00:32:46;;;;;;;7.50;1.10;;;12.80;99.90;;;;;;5478042;25;38531;-79
2024/04/11 00:35:18;;;;;;;6.75;1.73;;;12.80;99.90;;;;;;5469188;25;38164;-80
2024/04/11 00:37:45;;;;;;;7.68;1.73;;;12.80;99.90;;;;;;5470000;25;37700;-78
2024/04/11 00:40:12;;;;;;;6.35;1.40;;;12.80;99.90;;;;;;5470784;25;39237;-78
2024/04/11 00:42:41;;;;;;;6.50;2.70;;;12.80;99.90;;;;;;5473593;25;37072;-79
2024/04/11 00:45:07;;;;;;;8.00;1.45;;;12.70;99.90;;;;;;5470299;25;37056;-79
2024/04/11 00:47:40;;;;;;;6.40;1.23;;;12.70;99.90;;;;;;5486168;25;39447;-79
2024/04/11 00:50:07;;;;;;;6.50;1.77;;;12.70;99.90;;;;;;5477214;25;40021;-80
2024/04/11 00:52:36;;;;;;;6.30;1.30;;;12.70;99.90;;;;;;5486383;25;39482;-79
2024/04/11 00:55:04;;;;;;;9.45;1.70;;;12.70;99.90;;;;;;5475707;26;36510;-79
2024/04/11 00:57:30;;;;;;;6.97;1.73;;;12.70;99.90;;;;;;5481629;25;37768;-80
2024/04/11 00:59:57;;;;;;;8.27;1.67;;;12.70;99.90;;;;;;5495683;25;38305;-78
2024/04/11 01:05:06;;;;;;;10.07;1.90;;;12.70;99.90;;;;;;5475354;21;20040;-79
2024/04/11 01:07:53;;;;;;;6.68;1.70;;;12.70;99.90;;;;;;5355049;26;48638;-79
2024/04/11 01:10:29;;;;;;;7.18;1.48;;;12.70;99.90;;;;;;5418190;26;39239;-78
2024/04/11 01:12:59;;;;;;;7.60;2.00;;;12.70;99.90;;;;;;5398831;26;37556;-77
2024/04/11 01:15:28;;;;;;;10.25;1.95;;;12.70;1.00;;;;;;5399201;26;36760;-78
2024/04/11 01:18:05;;;;;;;6.65;1.92;;;12.70;1.00;;;;;;5381843;26;36998;-78
2024/04/11 01:20:57;;;;;;;6.45;1.70;;;12.70;1.00;;;;;;5399406;26;48709;-79
2024/04/11 01:23:25;;;;;;;4.55;1.65;;;12.70;1.00;;;;;;5375724;26;37984;-79
2024/04/11 01:26:08;;;;;;;7.03;1.35;;;12.80;1.00;;;;;;5421309;26;37577;-79
2024/04/11 01:28:42;;;;;;;13.90;2.90;;;12.70;1.00;;;;;;5365191;26;50178;-79
2024/04/11 01:31:17;;;;;;;7.38;2.20;;;12.80;1.00;;;;;;5391012;26;38663;-79
2024/04/11 01:33:50;;;;;;;9.25;1.98;;;12.80;1.00;;;;;;5401589;26;38829;-80
2024/04/11 01:36:16;;;;;;;;;;;12.80;1.00;;;;;;5408394;26;37584;-79
2024/04/11 01:38:47;;;;;;;8.50;2.28;;;12.90;1.00;;;;;;5400253;26;37491;-78
2024/04/11 01:41:14;;;;;;;7.05;2.30;;;12.80;1.00;;;;;;5386013;26;38010;-78
2024/04/11 01:43:41;;;;;;;6.72;2.00;;;12.80;1.00;;;;;;5428021;26;39748;-79
2024/04/11 01:46:07;;;;;;;8.98;2.17;;;12.80;1.00;;;;;;5372638;26;37066;-79
2024/04/11 01:48:40;;;;;;;8.25;1.77;;;12.80;1.00;;;;;;5389561;26;37118;-78
2024/04/11 01:51:09;;;;;;;8.27;2.22;;;12.80;1.00;;;;;;5394476;26;40297;-77
2024/04/11 01:54:43;;;;;;;11.35;2.10;;;12.80;1.00;;;;;;5362845;26;38741;-78
2024/04/11 01:57:16;;;;;;;9.90;2.25;;;12.80;1.00;;;;;;5394037;26;48266;-79
2024/04/11 01:59:57;;;;;;;;;;;12.90;1.00;;;;;;5397356;26;36792;-79
2024/04/11 02:02:24;;;;;;;8.48;1.90;;;12.90;1.00;;;;;;5400421;26;39445;-77
2024/04/11 02:04:51;;;;;;;15.82;2.72;;;12.90;1.00;;;;;;5395062;26;38466;-78
2024/04/11 02:07:26;;;;;;;8.98;1.95;;;12.90;1.00;;;;;;5390093;26;38390;-79
2024/04/11 02:09:56;;;;;;;7.78;1.85;;;13.00;1.00;;;;;;5392467;26;38721;-77
2024/04/11 02:12:26;;;;;;;11.13;1.98;;;13.00;1.00;;;;;;5397382;26;39162;-78
2024/04/11 02:15:41;;;;;;;5.80;1.50;;;13.10;1.00;;;;;;5391277;26;37253;-78
2024/04/11 02:18:16;;;;;;;6.68;1.88;;;13.10;1.00;;;;;;5377047;26;47828;-79
2024/04/11 02:20:53;;;;;;;9.68;2.50;;;13.10;1.00;;;;;;5370019;26;39804;-79
2024/04/11 02:23:20;;;;;;;7.65;1.67;;;13.10;1.00;;;;;;5393236;26;40549;-80
2024/04/11 02:25:47;;;;;;;12.32;2.35;;;13.10;1.00;;;;;;5391176;26;37275;-78
2024/04/11 02:28:14;;;;;;;7.65;1.80;;;13.10;1.00;;;;;;5385130;26;36977;-78
2024/04/11 02:30:40;;;;;;;9.15;2.13;;;13.10;1.00;;;;;;5396838;26;37574;-81
2024/04/11 02:33:10;;;;;;;13.55;2.17;;;13.10;1.00;;;;;;5399850;26;38306;-80
2024/04/11 02:35:42;;;;;;;10.50;2.63;;;13.00;1.00;;;;;;5401666;26;37514;-77
2024/04/11 02:38:09;;;;;;;10.15;2.20;;;13.00;1.00;;;;;;5399093;26;39119;-78
2024/04/11 02:40:57;;;;;;;6.88;2.33;;;13.00;1.00;;;;;;5401065;26;37327;-80
2024/04/11 02:43:39;;;;;;;12.88;2.85;;;13.00;1.00;;;;;;5387992;26;39444;-78
2024/04/11 02:46:15;;;;;;;12.10;2.60;;;12.90;1.00;;;;;;5400896;26;37249;-79
2024/04/11 02:48:45;;;;;;;10.70;1.92;;;12.90;1.00;;;;;;5400700;26;38918;-79
2024/04/11 02:51:12;;;;;;;6.63;2.05;;;12.90;1.00;;;;;;5402039;26;37157;-79
2024/04/11 02:53:41;;;;;;;8.75;2.40;;;12.90;1.00;;;;;;5390649;26;38112;-79
2024/04/11 02:56:31;;;;;;;8.15;2.22;;;12.80;1.00;;;;;;5413343;26;38038;-79
2024/04/11 02:59:04;;;;;;;10.63;2.25;;;12.80;1.00;;;;;;5390758;26;39915;-79
2024/04/11 03:02:11;;;;;;;7.85;2.03;;;12.80;1.00;;;;;;5404348;26;50233;-79
2024/04/11 03:05:06;;;;;;;11.63;2.35;;;12.80;1.00;;;;;;5378517;26;48072;-79
2024/04/11 03:07:40;;;;;;;9.65;2.13;;;12.80;1.00;;;;;;5429394;26;47539;-78
2024/04/11 03:10:13;;;;;;;7.47;2.33;;;12.70;1.00;;;;;;5389881;26;37030;-80
2024/04/11 03:12:40;;;;;;;9.27;2.55;;;12.70;1.00;;;;;;5393915;26;36463;-80
2024/04/11 03:15:09;;;;;;;12.35;2.25;;;12.70;1.00;;;;;;5419056;26;40250;-79
2024/04/11 03:17:41;;;;;;;9.05;2.50;;;12.70;1.00;;;;;;5389305;26;38316;-79
2024/04/11 03:20:17;;;;;;;;;;;12.70;1.00;;;;;;5383065;26;38373;-79
2024/04/11 03:23:02;;;;;;;7.57;2.30;;;12.70;1.00;;;;;;5400802;26;38832;-79
2024/04/11 03:25:35;;;;;;;12.18;2.83;;;12.60;1.00;;;;;;5388290;26;47377;-80
2024/04/11 03:28:01;;;;;;;11.07;2.20;;;12.60;1.00;;;;;;5399667;26;37911;-80
2024/04/11 03:33:10;;;;;;;7.57;2.00;;;12.60;1.00;;;;;;5625877;21;20637;-81
2024/04/11 03:35:37;;;;;;;6.70;2.33;;;12.60;1.00;;;;;;5378661;26;37746;-79
2024/04/11 03:38:14;;;;;;;9.30;2.13;;;12.60;1.00;;;;;;5392359;26;40773;-80
2024/04/11 03:41:28;;;;;;;7.47;2.35;;;12.60;1.00;;;;;;5383047;26;37120;-80
2024/04/11 03:43:54;;;;;;;7.80;2.05;;;12.60;1.00;;;;;;5388832;26;48357;-79
2024/04/11 03:46:27;;;;;;;12.13;2.78;;;12.60;1.00;;;;;;5370453;26;38320;-79
2024/04/11 03:48:57;;;;;;;9.15;2.17;;;12.60;1.00;;;;;;5396566;26;38519;-79
2024/04/11 03:51:38;;;;;;;6.22;2.20;;;12.60;1.00;;;;;;5398861;26;37843;-78
2024/04/11 03:54:06;;;;;;;7.07;2.30;;;12.60;1.00;;;;;;5365592;26;38081;-77
2024/04/11 03:56:32;;;;;;;6.35;2.63;;;12.60;1.00;;;;;;5367062;26;39561;-77
2024/04/11 04:01:36;;;;;;;11.60;3.03;;;12.50;1.00;;;;;;6003901;21;20007;-80
2024/04/11 04:04:08;;;;;;;10.80;2.05;;;12.50;1.00;;;;;;5427898;26;37497;-78
2024/04/11 04:06:34;;;;;;;7.82;2.75;;;12.50;1.00;;;;;;5433242;26;39163;-76
2024/04/11 04:09:07;;;;;;;5.03;1.98;;;12.50;1.00;;;;;;5416250;26;35315;-79
2024/04/11 04:11:47;;;;;;;7.57;1.90;;;12.50;1.00;;;;;;5425094;26;47847;-79
2024/04/11 04:14:13;;;;;;;8.10;2.17;;;12.60;1.00;;;;;;5430559;26;36958;-80
2024/04/11 04:16:51;;;;;;;11.13;2.25;;;12.50;1.00;;;;;;5424330;26;40060;-78
2024/04/11 04:19:35;;;;;;;5.25;1.90;;;12.50;1.00;;;;;;5412841;26;38113;-80
2024/04/11 04:22:08;;;;;;;7.82;2.17;;;12.50;1.00;;;;;;5417155;26;38612;-79
2024/04/11 04:24:35;;;;;;;9.27;2.75;;;12.50;1.00;;;;;;5424338;26;36463;-80
2024/04/11 04:27:04;;;;;;;10.13;2.92;;;12.50;1.00;;;;;;5422678;26;37982;-79
2024/04/11 04:29:43;;;;;;;10.27;2.20;;;12.50;1.00;;;;;;5435781;26;49749;-79
2024/04/11 04:32:18;;;;;;;6.88;2.28;;;12.60;1.00;;;;;;5417047;26;37527;-81
2024/04/11 04:35:17;;;;;;;8.73;2.83;;;12.60;3.00;;;;;;5373104;26;38360;-81
2024/04/11 04:37:47;;;;;;;7.20;2.22;;;12.60;7.40;;;;;;5364474;26;48592;-79
2024/04/11 04:40:14;;;;;;;7.90;2.45;;;12.50;7.80;;;;;;5351799;26;38891;-79
2024/04/11 04:42:41;;;;;;;7.40;2.28;;;12.60;9.70;;;;;;5351870;26;36701;-79
2024/04/11 04:45:12;;;;;;;11.48;3.13;;;12.60;13.60;;;;;;5349872;26;37390;-77
2024/04/11 04:47:40;;;;;;;10.43;3.20;;;12.50;14.30;;;;;;5362261;26;39010;-79
2024/04/11 04:50:07;;;;;;;6.75;2.53;;;12.60;18.10;;;;;;5354117;26;38412;-78
2024/04/11 04:52:33;;;;;;;10.30;2.47;;;12.60;17.80;;;;;;5366867;26;36698;-80
2024/04/11 04:55:10;;;;;;;9.20;2.88;;;12.60;22.50;;;;;;5370025;26;37720;-79
2024/04/11 04:57:41;;;;;;;11.52;3.00;;;12.60;37.50;;;;;;5352488;26;47938;-79
2024/04/11 05:00:24;;;;;;;11.15;3.50;;;12.50;52.20;;;;;;5357179;26;38045;-79
2024/04/11 05:03:08;;;;;;;10.15;3.58;;;12.40;70.60;;;;;;5326842;26;49160;-80
2024/04/11 05:05:43;;;;;;;7.82;3.60;;;12.40;87.30;;;;;;5341399;26;48693;-79
2024/04/11 05:08:45;;;;;;;11.18;4.25;;;12.30;94.30;;;;;;5376747;26;38447;-80
2024/04/11 05:15:27;;;;;;;14.10;4.37;;;12.20;99.90;;;;;;5409557;26;39384;-80
2024/04/11 05:20:33;;;;;;;6.90;3.55;;;12.30;99.90;;;;;;5961122;21;20004;-78
2024/04/11 05:30:38;;;;;;;14.80;4.25;;;12.20;99.90;;;;;;5411370;26;38214;-80
2024/04/11 05:33:30;;;;;;;10.00;4.07;;;12.20;99.90;;;;;;5380783;26;50324;-80
2024/04/11 06:45:55;;;;;;;11.50;8.00;;;12.40;99.90;;;;;;6289826;22;21287;-79
2024/04/11 06:48:30;;;;;;;15.35;8.68;;;12.40;99.90;;;;;;5377596;22;37494;-81
2024/04/11 06:56:11;;;;;;;11.68;8.77;;;12.40;99.90;;;;;;5417201;22;20015;-78
2024/04/11 06:58:38;;;;;;;13.68;8.65;;;12.40;99.90;;;;;;5268717;27;37370;-80
2024/04/11 07:01:09;;;;;;;15.55;9.88;;;12.40;99.90;;;;;;5260819;27;38586;-78
2024/04/11 07:03:40;;;;;;;16.67;9.90;;;12.40;99.90;;;;;;5269868;27;38439;-80
2024/04/11 07:06:21;;;;;;;16.65;10.80;;;12.40;99.90;;;;;;5261072;27;37608;-79
2024/04/11 07:09:03;;;;;;;19.42;10.30;;;12.50;99.90;;;;;;5298319;26;36627;-80
2024/04/11 07:12:10;;;;;;;11.93;9.68;;;12.50;99.90;;;;;;5293174;26;49276;-80
2024/04/11 07:25:07;;;;;;;16.83;10.15;;;12.60;99.90;;;;;;6115134;21;20012;-79
2024/04/11 07:27:49;;;;;;;14.27;10.10;;;12.70;99.90;;;;;;5269223;26;50015;-80
2024/04/11 07:37:17;;;;;;;13.23;9.65;;;12.70;99.90;;;;;;5212415;27;39429;-81
2024/04/11 07:46:00;;;;;;;;;;;12.80;99.90;;;;;;5144544;27;48840;-79
2024/04/11 07:48:39;;;;;;;14.80;8.95;;;12.80;99.90;;;;;;5184061;27;37553;-79
2024/04/11 07:51:09;;;;;;;17.00;9.18;;;12.80;99.90;;;;;;5118353;27;39835;-81
2024/04/11 07:53:47;;;;;;;18.30;9.20;;;12.80;99.90;;;;;;5182728;27;38752;-78
2024/04/11 07:56:29;;;;;;;14.60;10.27;;;12.80;99.90;;;;;;5161208;27;39641;-80
2024/04/11 07:58:56;;;;;;;15.88;11.00;;;12.80;99.90;;;;;;5182640;27;38136;-78
2024/04/11 08:01:30;;;;;;;18.85;11.00;;;12.80;99.90;;;;;;5172137;27;37045;-77
2024/04/11 08:04:04;;;;;;;16.75;10.40;;;12.80;99.90;;;;;;5177211;27;38576;-76
2024/04/11 08:09:06;;;;;;;16.77;12.10;;;12.90;99.90;;;;;;6158226;21;20042;-76
2024/04/11 08:11:38;;;;;;;15.13;11.93;;;13.00;99.90;;;;;;5232694;27;37319;-80
2024/04/11 08:17:20;;;;;;;17.25;12.10;;;13.20;99.90;;;;;;5282612;26;40155;-80
2024/04/11 08:20:14;;;;;;;21.42;14.52;;;13.10;99.90;;;;;;5261817;27;37743;-79
2024/04/11 08:22:55;;;;;;;17.83;13.05;;;13.00;99.90;;;;;;5263598;26;38886;-78
2024/04/11 08:25:45;;;;;;;19.65;14.02;;;13.00;99.90;;;;;;5272612;26;38979;-80
2024/04/11 08:28:50;;;;;;;23.70;14.95;;;13.00;99.90;;;;;;5245985;27;39828;-78
2024/04/11 08:31:34;;;;;;;21.90;15.65;;;13.00;99.90;;;;;;5332855;22;38634;-81
2024/04/11 08:37:59;;;;;;;25.70;15.80;;;13.10;99.90;;;;;;5139395;27;49618;-81
2024/04/11 08:40:35;;;;;;;26.02;17.08;;;13.20;99.90;;;;;;5149471;27;37899;-84
2024/04/11 08:43:04;;;;;;;25.95;17.77;;;13.20;99.90;;;;;;5129702;27;38984;-82
2024/04/11 08:46:15;;;;;;;23.90;16.60;;;13.30;99.90;;;;;;5147825;27;38711;-81
2024/04/11 08:48:49;;;;;;;29.15;17.52;;;13.30;99.90;;;;;;5103081;27;48370;-81
2024/04/11 08:51:38;;;;;;;26.67;17.88;;;13.30;99.90;;;;;;5070020;28;38827;-82
2024/04/11 08:54:18;;;;;;;28.38;17.48;;;13.40;99.90;;;;;;5108236;27;39508;-80
2024/04/11 08:57:19;;;;;;;27.98;18.00;;;13.40;99.90;;;;;;5088965;28;37774;-79
2024/04/11 09:03:20;;;;;;;27.40;17.08;;;13.40;99.90;;;;;;5044593;27;50549;-80
2024/04/11 09:05:50;;;;;;;23.27;15.60;;;13.40;99.90;;;;;;5102674;28;37976;-78
2024/04/11 09:08:25;;;;;;;23.95;14.50;;;13.30;99.90;;;;;;5131981;27;38117;-79
2024/04/11 09:10:54;;;;;;;20.65;13.73;;;13.40;99.90;;;;;;5164204;27;37422;-77
2024/04/11 09:13:25;;;;;;;23.95;14.27;;;13.40;99.90;;;;;;5174610;27;38276;-81
2024/04/11 09:16:28;;;;;;;20.90;12.73;;;13.40;99.90;;;;;;5147875;27;38354;-80
2024/04/11 09:19:42;;;;;;;18.67;11.40;;;13.50;99.90;;;;;;5124825;27;47853;-80
2024/04/11 09:22:41;;;;;;;16.75;10.52;;;13.50;99.90;;;;;;5185138;27;48408;-80
2024/04/11 09:25:11;;;;;;;15.75;8.85;;;13.60;99.90;;;;;;5155418;27;40139;-81
2024/04/11 09:27:50;;;;;;;10.60;7.57;;;13.60;99.90;;;;;;5148717;27;37787;-80
2024/04/11 09:30:29;;;;;;;14.57;8.07;;;13.60;99.90;;;;;;5167037;27;37630;-81
2024/04/11 09:32:59;;;;;;;12.10;6.68;;;13.70;99.90;;;;;;5212753;27;38696;-80
2024/04/11 09:35:27;;;;;;;10.55;5.72;;;13.70;99.90;;;;;;5240331;27;39119;-80
2024/04/11 09:37:59;;;;;;;12.07;5.20;;;13.70;99.90;;;;;;5221313;27;40452;-82
2024/04/11 09:40:53;;;;;;;;;;;13.70;99.90;;;;;;5212306;27;37007;-80
2024/04/11 09:43:28;;;;;;;12.52;5.53;;;13.70;99.90;;;;;;5231947;27;38863;-81
2024/04/11 09:45:56;;;;;;;11.63;5.90;;;13.70;99.90;;;;;;5243975;27;39151;-82
2024/04/11 09:48:31;;;;;;;10.35;5.88;;;13.80;99.90;;;;;;5240488;27;39494;-81
2024/04/11 09:51:10;;;;;;;11.50;6.28;;;13.90;99.90;;;;;;5228919;27;38614;-82
2024/04/11 09:53:41;;;;;;;12.05;4.90;;;13.90;99.90;;;;;;5216467;27;51180;-83
2024/04/11 09:56:13;;;;;;;9.18;5.35;;;13.90;99.90;;;;;;5217238;27;39180;-83
2024/04/11 09:58:43;;;;;;;14.88;6.90;;;13.90;99.90;;;;;;5239370;27;38983;-81
2024/04/11 10:01:41;;;;;;;12.18;6.57;;;13.90;99.90;;;;;;5257386;27;39344;-83
2024/04/11 10:04:25;;;;;;;11.43;6.00;;;13.90;99.90;;;;;;5241206;27;37433;-84
2024/04/11 10:06:58;;;;;;;13.60;6.53;;;13.90;99.90;;;;;;5216772;27;40383;-82
2024/04/11 10:09:29;;;;;;;10.10;5.85;;;13.90;99.90;;;;;;5226651;27;37435;-86
2024/04/11 10:12:03;;;;;;;11.93;6.05;;;14.00;99.90;;;;;;5249310;27;38355;-83
2024/04/11 10:14:32;;;;;;;13.55;6.57;;;14.10;99.90;;;;;;5212542;27;48499;-85
2024/04/11 10:17:04;;;;;;;15.52;6.95;;;14.20;99.90;;;;;;5207647;27;40519;-84
2024/04/11 10:19:43;;;;;;;14.85;6.72;;;14.20;99.90;;;;;;5224586;27;50483;-84
2024/04/11 10:22:15;;;;;;;14.35;6.45;;;14.30;99.90;;;;;;5217925;27;38105;-84
2024/04/11 10:25:06;;;;;;;11.90;6.28;;;14.30;99.90;;;;;;5237553;27;39079;-86
2024/04/11 10:27:37;;;;;;;11.95;6.68;;;14.40;99.90;;;;;;5216712;27;49316;-86
2024/04/11 10:30:09;;;;;;;12.07;6.70;;;14.30;99.90;;;;;;5262811;27;40180;-84
2024/04/11 10:32:51;;;;;;;11.18;6.35;;;14.30;99.90;;;;;;5184727;27;47146;-87
2024/04/11 10:35:24;;;;;;;15.50;7.25;;;14.30;99.90;;;;;;5240275;26;37220;-87
2024/04/11 10:37:55;;;;;;;15.05;7.57;;;14.30;99.90;;;;;;5221128;27;40827;-87
2024/04/11 10:40:24;;;;;;;13.68;7.10;;;14.30;99.90;;;;;;5213426;26;37392;-87
2024/04/11 10:46:00;;;;;;;;;;;;;;;;;;;;;
2024/04/11 10:48:31;;;;;;;15.65;7.32;;;14.40;99.90;;;;;;5244355;27;39485;-85
2024/04/11 10:51:00;;;;;;;11.20;6.38;;;14.40;99.90;;;;;;5221036;27;39213;-86
2024/04/11 10:53:28;;;;;;;11.10;6.20;;;14.50;99.90;;;;;;5231772;27;38331;-86
2024/04/11 10:56:20;;;;;;;11.18;6.30;;;14.70;99.90;;;;;;5229497;26;36710;-85
2024/04/11 10:58:55;;;;;;;10.35;5.68;;;14.80;99.90;;;;;;5234215;27;48945;-86
2024/04/11 11:01:29;;;;;;;12.95;6.03;;;15.00;99.90;;;;;;5233475;27;37332;-83
2024/04/11 11:03:59;;;;;;;12.35;5.15;;;15.30;99.90;;;;;;5246047;27;37787;-87
2024/04/11 11:06:40;;;;;;;13.88;5.93;;;15.40;99.90;;;;;;5247043;27;36278;-86
2024/04/11 11:09:15;;;;;;;13.43;5.53;;;15.40;99.90;;;;;;5238291;27;39276;-88
2024/04/11 11:11:54;;;;;;;14.52;6.15;;;15.60;99.90;;;;;;5241372;27;39537;-86
2024/04/11 11:14:29;;;;;;;12.93;5.80;;;15.40;99.90;;;;;;5227289;27;38328;-85
2024/04/11 11:17:07;;;;;;;12.63;6.85;;;15.30;99.90;;;;;;5236245;27;38824;-85
2024/04/11 11:19:39;;;;;;;15.63;6.15;;;15.20;99.90;;;;;;5231792;27;48241;-85
2024/04/11 11:22:18;;;;;;;11.75;5.10;;;15.30;99.90;;;;;;5248239;27;37061;-86
2024/04/11 11:24:48;;;;;;;13.52;6.28;;;15.30;99.90;;;;;;5241167;27;38083;-87
2024/04/11 11:27:14;;;;;;;12.95;6.18;;;15.30;99.90;;;;;;5233270;27;38868;-84
2024/04/11 11:29:48;;;;;;;17.73;6.70;;;15.30;99.90;;;;;;5238740;27;37826;-87
2024/04/11 11:32:19;;;;;;;13.23;6.40;;;15.20;99.90;;;;;;5229455;27;40288;-86
2024/04/11 11:34:51;;;;;;;14.27;6.13;;;15.10;99.90;;;;;;5232759;27;39396;-87
2024/04/11 11:37:21;;;;;;;15.47;7.10;;;15.20;99.90;;;;;;5224668;27;38794;-88
2024/04/11 11:39:57;;;;;;;15.10;6.90;;;15.10;99.90;;;;;;5224315;27;38356;-87
2024/04/11 11:42:26;;;;;;;20.52;8.07;;;15.10;99.90;;;;;;5271084;26;38915;-87
2024/04/11 11:47:45;;;;;;;18.65;6.85;;;15.00;99.90;;;;;;5215949;27;38735;-86
2024/04/11 11:50:38;;;;;;;16.83;7.00;;;15.10;99.90;;;;;;5234653;26;38247;-88
2024/04/11 11:53:25;;;;;;;19.73;8.02;;;15.00;99.90;;;;;;5257793;27;38998;-87
2024/04/11 11:55:58;;;;;;;16.02;7.65;;;15.00;99.90;;;;;;5235778;27;37543;-88
2024/04/11 11:58:25;;;;;;;13.45;6.15;;;15.20;99.90;;;;;;5240874;27;37111;-90
2024/04/11 12:00:59;;;;;;;14.10;6.38;;;15.30;99.90;;;;;;5218938;27;40173;-89
2024/04/11 12:03:30;;;;;;;15.13;6.82;;;15.40;99.30;;;;;;5258215;27;38348;-90
2024/04/11 12:06:04;;;;;;;15.02;6.13;;;15.40;96.40;;;;;;5221304;27;36919;-87
2024/04/11 12:08:37;;;;;;;15.07;7.05;;;15.30;93.80;;;;;;5232686;27;47629;-91
2024/04/11 12:13:51;;;;;;;13.90;6.68;;;15.60;95.50;;;;;;5227094;27;38410;-75
2024/04/11 12:16:17;;;;;;;11.60;6.00;;;15.60;70.20;;;;;;5219870;27;37747;-80
2024/04/11 12:18:46;;;;;;;12.40;6.40;;;15.70;83.80;;;;;;5221684;27;37472;-86
2024/04/11 12:21:25;;;;;;;13.73;5.97;;;15.60;64.80;;;;;;5234667;27;37768;-86
2024/04/11 12:23:54;;;;;;;10.52;5.65;;;15.70;68.00;;;;;;5227920;27;37002;-86
2024/04/11 12:26:21;;;;;;;15.52;6.10;;;15.60;65.30;;;;;;5220104;27;38024;-85
2024/04/11 12:28:50;;;;;;;12.75;6.57;;;15.70;79.70;;;;;;5229540;27;21258;-85
2024/04/11 12:31:21;;;;;;;12.68;6.50;;;15.60;61.90;;;;;;5200591;27;41065;-85
2024/04/11 12:33:48;;;;;;;15.52;6.47;;;15.50;57.00;;;;;;5218714;27;37469;-85
2024/04/11 12:39:12;;;;;;;9.43;5.40;;;15.30;70.80;;;;;;5225445;27;39028;-85
2024/04/11 12:41:43;;;;;;;7.95;5.25;;;15.40;83.70;;;;;;5230366;27;50210;-85
2024/04/11 12:44:12;;;;;;;10.68;5.45;;;15.40;69.90;;;;;;5211441;27;42886;-86
2024/04/11 12:46:49;;;;;;;10.80;5.32;;;15.40;65.20;;;;;;5223648;27;37476;-87
2024/04/11 12:49:20;;;;;;;9.43;5.80;;;15.50;57.60;;;;;;5219439;27;37434;-84
2024/04/11 12:51:50;;;;;;;11.60;5.70;;;15.50;58.80;;;;;;5224415;27;39296;-87
2024/04/11 12:54:16;;;;;;;8.25;5.03;;;15.40;54.90;;;;;;5227417;27;37215;-87
2024/04/11 12:56:49;;;;;;;10.75;6.25;;;15.40;54.80;;;;;;5224375;27;38744;-85
2024/04/11 12:59:28;;;;;;;11.20;6.00;;;15.50;54.80;;;;;;5235645;27;37108;-85
2024/04/11 13:01:56;;;;;;;7.32;4.72;;;15.60;50.40;;;;;;5257114;27;38196;-85
2024/04/11 13:04:32;;;;;;;7.10;4.28;;;15.70;43.70;;;;;;5231216;27;39865;-87
2024/04/11 13:07:01;;;;;;;9.55;4.20;;;15.80;38.40;;;;;;5210466;27;38731;-85
2024/04/11 13:12:43;;;;;;;7.25;3.95;;;15.80;28.50;;;;;;5136311;27;49460;-86
2024/04/11 13:15:12;;;;;;;8.35;4.60;;;15.90;33.10;;;;;;5142859;27;38551;-85
2024/04/11 13:17:41;;;;;;;10.25;5.57;;;15.90;31.50;;;;;;5187223;27;38604;-85
2024/04/11 13:20:12;;;;;;;9.80;5.18;;;16.00;28.90;;;;;;5242075;27;37688;-84
2024/04/11 13:22:46;;;;;;;8.55;5.35;;;16.00;34.10;;;;;;5223815;27;38090;-85
2024/04/11 13:25:20;;;;;;;9.75;4.50;;;15.90;30.40;;;;;;5239691;27;38480;-92
2024/04/11 13:28:57;;;;;;;;;;;;;;;;;;;;;
2024/04/11 13:31:35;;;;;;;7.68;4.45;;;15.80;43.10;;;;;;5202922;27;39042;-92
2024/04/11 13:34:07;;;;;;;6.95;4.07;;;16.00;21.90;;;;;;5221866;27;38030;-85
2024/04/11 13:36:33;;;;;;;7.78;4.40;;;16.10;17.50;;;;;;5240232;27;37224;-85
2024/04/11 13:39:01;;;;;;;9.10;4.88;;;16.10;4.30;;;;;;5210299;27;36645;-85
2024/04/11 13:41:48;;;;;;;7.95;4.28;;;16.00;1.00;;;;;;5230493;27;46923;-85
2024/04/11 13:44:18;;;;;;;8.07;4.50;;;15.90;11.20;;;;;;5213225;27;37616;-87
2024/04/11 13:46:51;;;;;;;7.82;4.55;;;15.80;15.10;;;;;;5228455;27;38889;-86
2024/04/11 13:49:24;;;;;;;;;;;15.70;16.90;;;;;;5224891;27;37457;-85
2024/04/11 13:51:55;;;;;;;7.80;4.18;;;15.70;27.50;;;;;;5233754;27;38368;-86
2024/04/11 13:54:31;;;;;;;4.22;3.25;;;15.70;26.10;;;;;;5219868;27;38050;-85
2024/04/11 13:57:09;;;;;;;5.90;3.75;;;15.80;21.70;;;;;;5236854;27;37008;-86
2024/04/11 13:59:37;;;;;;;7.90;4.00;;;15.70;14.10;;;;;;5214768;27;47833;-88
2024/04/11 14:02:09;;;;;;;8.20;5.00;;;15.70;22.10;;;;;;5234223;27;37449;-83
2024/04/11 14:04:48;;;;;;;12.60;6.50;;;15.60;23.00;;;;;;5227414;27;39611;-86
2024/04/11 14:07:19;;;;;;;11.57;6.90;;;15.50;25.20;;;;;;5248070;27;37942;-86
2024/04/11 14:09:45;;;;;;;12.90;7.72;;;15.50;30.90;;;;;;5231659;27;39004;-84
2024/04/11 14:12:12;;;;;;;12.38;7.20;;;15.60;28.00;;;;;;5223917;27;36285;-85
2024/04/11 14:14:38;;;;;;;14.18;7.78;;;15.60;29.80;;;;;;5258039;26;39389;-86
2024/04/11 14:17:07;;;;;;;11.40;6.50;;;15.70;30.90;;;;;;5252497;27;38496;-85
2024/04/11 14:19:38;;;;;;;15.10;7.47;;;15.70;26.40;;;;;;5226347;27;39558;-85
2024/04/11 14:25:16;;;;;;;10.90;6.78;;;15.60;38.60;;;;;;5208526;27;38459;-85
2024/04/11 14:27:44;;;;;;;13.35;7.50;;;15.50;34.40;;;;;;5223701;27;49282;-84
2024/04/11 14:30:10;;;;;;;9.07;6.88;;;15.40;41.40;;;;;;5228566;27;36961;-86
2024/04/11 14:38:09;;;;;;;12.55;7.40;;;15.30;36.30;;;;;;5228876;27;39831;-86
2024/04/11 14:40:39;;;;;;;12.60;8.15;;;15.40;31.30;;;;;;5217386;27;37073;-86
2024/04/11 14:43:09;;;;;;;13.68;8.07;;;15.40;27.70;;;;;;5232828;27;39001;-85
2024/04/11 14:45:40;;;;;;;14.18;8.70;;;15.40;23.40;;;;;;5236409;27;39393;-84
2024/04/11 14:48:33;;;;;;;14.57;8.77;;;15.40;26.20;;;;;;5232837;27;36855;-84
2024/04/11 14:51:03;;;;;;;17.85;10.00;;;15.50;36.30;;;;;;5228488;27;38192;-86
2024/04/11 14:53:33;;;;;;;16.10;8.68;;;15.50;28.50;;;;;;5212532;27;49885;-86
2024/04/11 14:56:48;;;;;;;17.38;9.05;;;15.60;44.10;;;;;;5236718;27;37879;-87
2024/04/11 14:58:53;;;;;;;15.18;8.68;;;15.50;35.60;;;;;;5225144;27;50268;-86
2024/04/11 15:01:31;;;;;;;16.33;9.23;;;15.30;47.10;;;;;;5233329;27;38777;-86
2024/04/11 15:04:05;;;;;;;16.80;8.65;;;15.30;56.90;;;;;;5237040;27;37568;-87
2024/04/11 15:06:36;;;;;;;18.02;8.77;;;15.30;60.80;;;;;;5242167;27;47791;-84
2024/04/11 15:09:26;;;;;;;14.07;8.13;;;15.40;40.40;;;;;;5235422;27;37590;-85
2024/04/11 15:11:53;;;;;;;18.23;8.82;;;15.40;30.40;;;;;;5238133;27;39639;-87
2024/04/11 15:14:23;;;;;;;14.45;8.02;;;15.30;41.20;;;;;;5229600;27;37645;-87
2024/04/11 15:17:00;;;;;;;14.70;7.97;;;15.30;47.80;;;;;;5230540;27;39795;-86
2024/04/11 15:19:29;;;;;;;15.32;8.02;;;15.30;55.30;;;;;;5234117;27;38236;-88
2024/04/11 15:21:56;;;;;;;13.52;7.63;;;15.30;57.40;;;;;;5231559;27;36697;-83
2024/04/11 15:24:22;;;;;;;15.50;7.97;;;15.30;62.90;;;;;;5232174;27;37981;-86
2024/04/11 15:26:48;;;;;;;16.50;8.50;;;15.10;50.00;;;;;;5230262;27;40376;-86
2024/04/11 15:29:21;;;;;;;12.35;8.10;;;15.00;71.70;;;;;;5225524;27;37958;-84
2024/04/11 15:32:05;;;;;;;15.82;8.38;;;15.10;76.00;;;;;;5230071;27;39024;-88
2024/04/11 15:34:52;;;;;;;13.20;8.18;;;15.10;66.20;;;;;;5194114;27;48454;-89
2024/04/11 15:37:28;;;;;;;18.42;9.35;;;15.00;70.10;;;;;;5233072;27;38427;-84
2024/04/11 15:40:00;;;;;;;15.45;9.80;;;15.10;81.80;;;;;;5226023;27;37592;-85
2024/04/11 15:42:32;;;;;;;19.10;10.57;;;15.10;82.50;;;;;;5241998;27;37116;-89
2024/04/11 15:45:03;;;;;;;18.88;10.38;;;15.10;73.80;;;;;;5230835;27;37180;-87
2024/04/11 15:47:33;;;;;;;19.20;11.17;;;15.10;70.80;;;;;;5232538;27;47547;-80
2024/04/11 15:50:05;;;;;;;18.83;11.60;;;15.00;75.50;;;;;;5239476;27;37959;-80
2024/04/11 15:52:34;;;;;;;18.27;10.98;;;14.90;91.80;;;;;;5228556;27;48672;-80
2024/04/11 15:55:09;;;;;;;20.48;9.85;;;15.00;99.20;;;;;;5233852;27;37100;-80
2024/04/11 15:57:38;;;;;;;16.58;10.35;;;15.10;95.30;;;;;;5232983;27;48200;-81
2024/04/11 16:00:10;;;;;;;17.02;10.05;;;15.20;88.90;;;;;;5224892;27;38788;-76